createdAt,value
2017-11-22T00:00:32.094Z,6.27
2017-11-22T00:02:58.411Z,6.17
2017-11-22T00:05:26.474Z,5.77
2017-11-22T00:07:53.153Z,5.37
2017-11-22T00:10:19.450Z,4.30
2017-11-22T00:12:45.731Z,4.30
2017-11-22T00:15:12.044Z,4.40
2017-11-22T00:17:38.353Z,3.73
2017-11-22T00:20:04.687Z,4.00
2017-11-22T00:22:31.016Z,4.20
2017-11-22T00:24:57.341Z,3.20
2017-11-22T00:27:23.708Z,3.47
2017-11-22T00:29:50.032Z,3.20
2017-11-22T00:32:16.332Z,4.57
2017-11-22T00:34:42.656Z,2.83
2017-11-22T00:37:08.956Z,3.37
2017-11-22T00:39:35.290Z,2.77
2017-11-22T00:42:01.612Z,2.97
2017-11-22T00:44:28.691Z,3.27
2017-11-22T00:46:55.033Z,3.10
2017-11-22T00:49:21.380Z,2.70
2017-11-22T00:51:47.675Z,3.60
2017-11-22T00:54:13.971Z,2.57
2017-11-22T00:56:40.284Z,1.90
2017-11-22T00:59:06.567Z,2.97
2017-11-22T01:01:32.861Z,3.33
2017-11-22T01:03:59.892Z,3.13
2017-11-22T01:06:26.959Z,2.50
2017-11-22T01:08:53.258Z,2.10
2017-11-22T01:11:19.571Z,2.50
2017-11-22T01:13:45.855Z,2.67
2017-11-22T01:16:12.918Z,2.30
2017-11-22T01:18:39.986Z,2.93
2017-11-22T01:21:06.280Z,2.73
2017-11-22T01:23:33.304Z,2.93
2017-11-22T01:25:59.722Z,3.73
2017-11-22T01:28:26.011Z,4.10
2017-11-22T01:30:52.396Z,3.17
2017-11-22T01:33:18.719Z,6.13
2017-11-22T01:35:45.044Z,4.10
2017-11-22T01:38:11.408Z,3.70
2017-11-22T01:40:38.483Z,4.50
2017-11-22T01:43:04.852Z,4.87
2017-11-22T01:45:31.160Z,5.80
2017-11-22T01:47:57.497Z,6.20
2017-11-22T01:50:23.834Z,7.60
2017-11-22T01:52:50.169Z,8.20
2017-11-22T01:55:16.490Z,8.07
2017-11-22T01:57:42.805Z,10.90
2017-11-22T02:00:09.105Z,12.10
2017-11-22T02:02:36.163Z,16.73
2017-11-22T02:05:02.478Z,16.13
2017-11-22T02:07:31.187Z,19.57
2017-11-22T02:09:57.630Z,23.30
2017-11-22T02:12:23.993Z,27.20
2017-11-22T02:14:50.301Z,26.83
2017-11-22T02:17:16.699Z,29.57
2017-11-22T02:19:43.033Z,37.33
2017-11-22T02:22:09.341Z,32.83
2017-11-22T02:24:35.644Z,37.90
2017-11-22T02:27:01.939Z,45.90
2017-11-22T02:29:28.267Z,38.43
2017-11-22T02:31:54.558Z,41.77
2017-11-22T02:34:21.638Z,47.67
2017-11-22T02:36:47.995Z,51.20
2017-11-22T02:39:14.324Z,49.47
2017-11-22T02:41:40.660Z,52.33
2017-11-22T02:44:07.031Z,56.27
2017-11-22T02:46:33.368Z,56.10
2017-11-22T02:49:00.464Z,59.67
2017-11-22T02:51:26.802Z,68.77
2017-11-22T02:53:53.149Z,60.53
2017-11-22T02:56:19.459Z,61.87
2017-11-22T02:58:45.817Z,61.50
2017-11-22T03:01:12.162Z,67.23
2017-11-22T03:03:38.489Z,62.93
2017-11-22T03:06:05.543Z,62.83
2017-11-22T03:08:32.883Z,72.60
2017-11-22T03:10:59.522Z,75.43
2017-11-22T03:13:25.854Z,67.20
2017-11-22T03:15:52.193Z,77.33
2017-11-22T03:18:18.483Z,81.93
2017-11-22T03:20:44.799Z,78.47
2017-11-22T03:23:11.076Z,90.20
2017-11-22T03:25:38.123Z,91.47
2017-11-22T03:28:05.201Z,81.17
2017-11-22T03:30:31.519Z,93.07
2017-11-22T03:32:58.553Z,106.80
2017-11-22T03:35:24.853Z,103.70
2017-11-22T03:37:51.181Z,100.60
2017-11-22T03:40:17.488Z,99.40
2017-11-22T03:42:43.844Z,104.50
2017-11-22T03:45:10.145Z,107.20
2017-11-22T03:47:36.467Z,99.60
2017-11-22T03:50:08.866Z,95.30
2017-11-22T03:52:41.497Z,97.13
2017-11-22T03:55:08.537Z,99.13
2017-11-22T03:57:35.630Z,89.97
2017-11-22T04:00:01.954Z,82.77
2017-11-22T04:02:29.206Z,79.97
2017-11-22T04:04:55.525Z,77.77
2017-11-22T04:07:21.914Z,82.53
2017-11-22T04:09:48.211Z,79.67
2017-11-22T04:12:14.494Z,72.30
2017-11-22T04:14:41.545Z,72.97
2017-11-22T04:17:08.611Z,69.93
2017-11-22T04:19:38.817Z,67.63
2017-11-22T04:22:05.858Z,68.83
2017-11-22T04:24:32.887Z,66.23
2017-11-22T04:26:59.189Z,58.60
2017-11-22T04:29:25.495Z,63.30
2017-11-22T04:31:51.815Z,56.70
2017-11-22T04:34:18.131Z,57.00
2017-11-22T04:36:45.166Z,54.37
2017-11-22T04:39:11.508Z,51.03
2017-11-22T04:41:37.811Z,51.63
2017-11-22T04:44:04.109Z,48.33
2017-11-22T04:46:30.452Z,49.43
2017-11-22T04:48:56.780Z,46.60
2017-11-22T04:51:23.122Z,46.90
2017-11-22T04:53:49.445Z,46.77
2017-11-22T04:56:15.758Z,50.10
2017-11-22T04:58:42.128Z,44.40
2017-11-22T05:01:09.208Z,45.20
2017-11-22T05:03:35.543Z,43.93
2017-11-22T05:06:01.881Z,41.73
2017-11-22T05:08:28.199Z,41.97
2017-11-22T05:10:54.525Z,41.60
2017-11-22T05:13:20.812Z,42.20
2017-11-22T05:15:47.149Z,40.70
2017-11-22T05:18:13.453Z,41.60
2017-11-22T05:20:39.744Z,42.90
2017-11-22T05:23:06.783Z,38.90
2017-11-22T05:25:33.818Z,38.00
2017-11-22T05:28:00.865Z,37.90
2017-11-22T05:30:27.931Z,37.20
2017-11-22T05:32:54.236Z,33.40
2017-11-22T05:35:20.511Z,34.73
2017-11-22T05:37:46.810Z,34.10
2017-11-22T05:40:13.836Z,30.87
2017-11-22T05:45:00.820Z,34.47
2017-11-22T05:47:27.169Z,35.10
2017-11-22T05:49:53.477Z,33.70
2017-11-22T05:52:19.846Z,34.70
2017-11-22T05:54:46.153Z,34.67
2017-11-22T05:57:12.466Z,34.73
2017-11-22T05:59:38.766Z,33.00
2017-11-22T06:02:05.102Z,32.30
2017-11-22T06:04:31.393Z,29.97
2017-11-22T06:06:57.688Z,29.10
2017-11-22T06:09:24.011Z,30.50
2017-11-22T06:11:50.303Z,30.50
2017-11-22T06:14:17.365Z,28.67
2017-11-22T06:16:44.388Z,28.83
2017-11-22T06:19:10.686Z,28.50
2017-11-22T06:21:36.982Z,33.07
2017-11-22T06:24:04.008Z,30.10
2017-11-22T06:26:31.047Z,34.63
2017-11-22T06:28:58.101Z,37.03
2017-11-22T06:31:25.121Z,35.90
2017-11-22T06:33:51.421Z,35.57
2017-11-22T06:36:17.707Z,39.47
2017-11-22T06:38:44.751Z,39.67
2017-11-22T06:41:11.799Z,41.67
2017-11-22T06:43:39.287Z,40.83
2017-11-22T06:46:05.581Z,42.73
2017-11-22T06:48:33.340Z,43.50
2017-11-22T06:50:59.633Z,43.93
2017-11-22T06:53:25.933Z,47.83
2017-11-22T06:55:52.262Z,47.57
2017-11-22T06:58:18.542Z,45.40
2017-11-22T07:00:44.845Z,50.33
2017-11-22T07:03:11.130Z,46.80
2017-11-22T07:05:38.174Z,46.77
2017-11-22T07:08:04.538Z,45.33
2017-11-22T07:10:30.845Z,50.93
2017-11-22T07:12:57.880Z,47.20
2017-11-22T07:15:24.177Z,52.00
2017-11-22T07:17:53.388Z,50.63
2017-11-22T07:20:19.714Z,50.23
2017-11-22T07:22:46.035Z,52.23
2017-11-22T07:25:13.192Z,50.07
2017-11-22T07:27:39.492Z,49.40
2017-11-22T07:30:05.786Z,53.50
2017-11-22T07:32:32.827Z,46.90
2017-11-22T07:34:59.889Z,52.20
2017-11-22T07:37:33.005Z,48.90
2017-11-22T07:39:59.309Z,48.23
2017-11-22T07:42:25.689Z,50.50
2017-11-22T07:44:52.007Z,49.90
2017-11-22T07:47:18.371Z,50.57
2017-11-22T07:49:44.667Z,47.07
2017-11-22T07:52:13.917Z,53.43
2017-11-22T07:54:40.247Z,50.50
2017-11-22T07:57:10.417Z,51.83
2017-11-22T07:59:36.762Z,43.13
2017-11-22T08:02:03.100Z,45.60
2017-11-22T08:04:29.462Z,41.83
2017-11-22T08:06:55.816Z,42.53
2017-11-22T08:09:22.134Z,46.33
2017-11-22T08:11:49.176Z,44.20
2017-11-22T08:14:15.526Z,37.97
2017-11-22T08:16:41.869Z,40.17
2017-11-22T08:19:08.163Z,37.77
2017-11-22T08:21:38.217Z,35.93
2017-11-22T08:24:04.545Z,36.93
2017-11-22T08:26:30.859Z,37.37
2017-11-22T08:28:57.180Z,36.20
2017-11-22T08:31:23.479Z,34.30
2017-11-22T08:33:50.575Z,31.87
2017-11-22T08:36:16.875Z,35.30
2017-11-22T08:38:43.207Z,35.73
2017-11-22T08:41:10.255Z,35.13
2017-11-22T08:43:37.362Z,34.17
2017-11-22T08:46:03.660Z,32.27
2017-11-22T08:48:30.010Z,29.43
2017-11-22T08:50:56.302Z,30.67
2017-11-22T08:53:23.356Z,31.50
2017-11-22T08:55:56.696Z,32.60
2017-11-22T08:58:25.038Z,30.13
2017-11-22T09:00:51.353Z,29.57
2017-11-22T09:03:17.696Z,29.43
2017-11-22T09:05:47.999Z,27.63
2017-11-22T09:08:14.332Z,28.50
2017-11-22T09:10:41.367Z,28.57
2017-11-22T09:13:08.428Z,28.97
2017-11-22T09:15:34.734Z,28.20
2017-11-22T09:18:05.969Z,27.10
2017-11-22T09:20:32.296Z,27.07
2017-11-22T09:22:58.654Z,30.40
2017-11-22T09:25:25.702Z,26.93
2017-11-22T09:27:55.738Z,25.77
2017-11-22T09:30:22.061Z,30.20
2017-11-22T09:32:51.401Z,25.73
2017-11-22T09:35:17.723Z,27.30
2017-11-22T09:37:44.028Z,26.17
2017-11-22T09:40:10.343Z,25.50
2017-11-22T09:42:38.548Z,25.73
2017-11-22T09:45:04.866Z,26.10
2017-11-22T09:47:31.172Z,30.63
2017-11-22T09:49:58.237Z,27.67
2017-11-22T09:52:24.545Z,27.63
2017-11-22T09:54:50.944Z,32.90
2017-11-22T09:57:17.272Z,29.30
2017-11-22T09:59:43.578Z,26.87
2017-11-22T10:02:09.877Z,27.27
2017-11-22T10:04:36.207Z,26.93
2017-11-22T10:07:02.531Z,26.33
2017-11-22T10:09:29.625Z,27.33
2017-11-22T10:11:55.943Z,27.73
2017-11-22T10:14:22.249Z,27.60
2017-11-22T10:16:49.349Z,26.47
2017-11-22T10:19:21.643Z,25.87
2017-11-22T10:21:54.687Z,26.83
2017-11-22T10:24:27.208Z,26.90
2017-11-22T10:26:54.293Z,27.77
2017-11-22T10:29:20.655Z,28.00
2017-11-22T10:31:47.017Z,28.30
2017-11-22T10:34:13.370Z,28.40
2017-11-22T10:36:39.709Z,28.40
2017-11-22T10:39:06.061Z,27.60
2017-11-22T10:41:32.436Z,29.53
2017-11-22T10:43:58.753Z,31.57
2017-11-22T10:46:25.075Z,29.27
2017-11-22T10:48:51.409Z,29.27
2017-11-22T10:51:17.752Z,28.10
2017-11-22T10:53:44.081Z,30.13
2017-11-22T10:56:10.435Z,30.43
2017-11-22T10:58:36.779Z,28.00
2017-11-22T11:01:03.852Z,27.70
2017-11-22T11:03:30.206Z,28.40
2017-11-22T11:05:56.555Z,27.27
2017-11-22T11:08:22.931Z,27.37
2017-11-22T11:10:49.253Z,27.87
2017-11-22T11:13:15.600Z,29.23
2017-11-22T11:15:41.932Z,27.43
2017-11-22T11:18:08.284Z,26.60
2017-11-22T11:20:34.628Z,26.90
2017-11-22T11:23:00.945Z,27.20
2017-11-22T11:25:27.248Z,27.47
2017-11-22T11:27:53.584Z,28.20
2017-11-22T11:30:19.891Z,27.40
2017-11-22T11:32:46.225Z,29.33
2017-11-22T11:35:12.569Z,28.37
2017-11-22T11:37:38.930Z,31.10
2017-11-22T11:40:05.259Z,30.73
2017-11-22T11:42:31.632Z,30.03
2017-11-22T11:44:57.987Z,30.07
2017-11-22T11:47:24.325Z,30.03
2017-11-22T11:49:50.647Z,30.10
2017-11-22T11:52:17.004Z,29.90
2017-11-22T11:54:43.405Z,28.20
2017-11-22T11:57:09.727Z,30.77
2017-11-22T11:59:36.084Z,30.03
2017-11-22T12:02:02.408Z,34.13
2017-11-22T12:04:28.731Z,27.77
2017-11-22T12:06:55.035Z,29.67
2017-11-22T12:09:22.087Z,28.37
2017-11-22T12:11:49.147Z,28.80
2017-11-22T12:14:16.201Z,28.13
2017-11-22T12:16:42.511Z,28.53
2017-11-22T12:19:09.591Z,29.97
2017-11-22T12:21:38.749Z,29.83
2017-11-22T12:24:06.693Z,26.50
2017-11-22T12:26:33.031Z,28.13
2017-11-22T12:28:59.358Z,27.57
2017-11-22T12:31:25.680Z,25.30
2017-11-22T12:33:51.994Z,25.93
2017-11-22T12:36:18.311Z,27.20
2017-11-22T12:38:44.598Z,24.67
2017-11-22T12:41:11.653Z,23.13
2017-11-22T12:43:38.714Z,24.30
2017-11-22T12:46:05.782Z,23.30
2017-11-22T12:48:32.089Z,21.00
2017-11-22T12:50:58.441Z,21.50
2017-11-22T12:53:24.798Z,21.73
2017-11-22T12:55:51.128Z,22.57
2017-11-22T12:58:17.461Z,20.17
2017-11-22T13:00:43.815Z,21.20
2017-11-22T13:03:10.865Z,22.33
2017-11-22T13:05:37.943Z,21.40
2017-11-22T13:08:04.259Z,20.60
2017-11-22T13:10:33.124Z,21.23
2017-11-22T13:13:00.206Z,21.77
2017-11-22T13:15:26.556Z,22.60
2017-11-22T13:17:52.902Z,23.30
2017-11-22T13:20:19.238Z,23.77
2017-11-22T13:22:45.570Z,22.97
2017-11-22T13:25:11.907Z,25.07
2017-11-22T13:27:38.199Z,23.80
2017-11-22T13:30:04.528Z,22.80
2017-11-22T13:32:33.869Z,25.13
2017-11-22T13:35:00.223Z,23.73
2017-11-22T13:37:26.561Z,24.67
2017-11-22T13:39:53.634Z,25.87
2017-11-22T13:42:19.977Z,23.43
2017-11-22T13:44:46.341Z,24.93
2017-11-22T13:47:12.689Z,24.07
2017-11-22T13:49:39.761Z,24.97
2017-11-22T13:52:06.115Z,24.43
2017-11-22T13:54:32.442Z,24.67
2017-11-22T13:56:58.785Z,25.37
2017-11-22T13:59:25.136Z,25.60
2017-11-22T14:01:51.472Z,27.30
2017-11-22T14:04:17.792Z,25.60
2017-11-22T14:06:44.181Z,25.60
2017-11-22T14:09:10.582Z,27.07
2017-11-22T14:11:37.660Z,27.07
2017-11-22T14:14:04.005Z,28.03
2017-11-22T14:16:30.345Z,28.30
2017-11-22T14:18:56.709Z,28.93
2017-11-22T14:21:23.054Z,29.67
2017-11-22T14:23:50.158Z,30.33
2017-11-22T14:26:16.470Z,32.27
2017-11-22T14:28:42.823Z,31.70
2017-11-22T14:31:09.148Z,32.80
2017-11-22T14:33:35.505Z,32.90
2017-11-22T14:36:01.831Z,33.03
2017-11-22T14:38:28.190Z,32.80
2017-11-22T14:40:55.270Z,32.80
2017-11-22T14:43:21.615Z,34.77
2017-11-22T14:45:47.936Z,32.23
2017-11-22T14:48:14.298Z,33.03
2017-11-22T14:50:40.635Z,37.37
2017-11-22T14:53:06.998Z,40.23
2017-11-22T14:55:33.363Z,31.73
2017-11-22T14:57:59.696Z,35.37
2017-11-22T15:00:26.038Z,31.67
2017-11-22T15:02:52.379Z,33.57
2017-11-22T15:05:18.736Z,31.90
2017-11-22T15:07:45.049Z,34.60
2017-11-22T15:10:11.379Z,32.07
2017-11-22T15:12:37.725Z,30.90
2017-11-22T15:15:04.820Z,32.20
2017-11-22T15:17:31.154Z,33.10
2017-11-22T15:19:57.488Z,34.47
2017-11-22T15:22:23.805Z,34.07
2017-11-22T15:24:50.134Z,32.50
2017-11-22T15:27:16.450Z,29.53
2017-11-22T15:29:43.530Z,32.10
2017-11-22T15:32:09.859Z,29.57
2017-11-22T15:34:36.182Z,32.97
2017-11-22T15:37:02.736Z,30.03
2017-11-22T15:39:29.082Z,27.60
2017-11-22T15:41:55.378Z,30.00
2017-11-22T15:44:21.739Z,30.00
2017-11-22T15:46:48.066Z,27.37
2017-11-22T15:49:14.359Z,28.87
2017-11-22T15:51:40.694Z,28.60
2017-11-22T15:54:07.799Z,29.47
2017-11-22T15:56:34.120Z,29.30
2017-11-22T15:59:00.449Z,28.07
2017-11-22T16:01:26.762Z,27.30
2017-11-22T16:03:53.109Z,27.53
2017-11-22T16:06:19.447Z,28.53
2017-11-22T16:08:46.502Z,28.00
2017-11-22T16:11:12.853Z,28.70
2017-11-22T16:13:39.955Z,28.07
2017-11-22T16:16:06.281Z,27.50
2017-11-22T16:18:32.639Z,28.27
2017-11-22T16:20:59.778Z,26.10
2017-11-22T16:23:26.134Z,26.63
2017-11-22T16:25:52.456Z,27.63
2017-11-22T16:28:18.791Z,28.93
2017-11-22T16:30:45.129Z,27.93
2017-11-22T16:33:12.252Z,28.80
2017-11-22T16:35:38.761Z,29.33
2017-11-22T16:38:05.105Z,27.03
2017-11-22T16:40:31.415Z,27.87
2017-11-22T16:42:57.768Z,27.13
2017-11-22T16:45:24.078Z,29.07
2017-11-22T16:47:50.456Z,26.13
2017-11-22T16:50:16.807Z,28.27
2017-11-22T16:52:43.894Z,26.93
2017-11-22T16:55:10.267Z,27.10
2017-11-22T16:57:37.360Z,29.30
2017-11-22T17:00:03.709Z,27.77
2017-11-22T17:02:30.058Z,25.30
2017-11-22T17:04:56.474Z,26.43
2017-11-22T17:07:22.787Z,28.40
2017-11-22T17:09:49.098Z,28.10
2017-11-22T17:12:15.426Z,27.60
2017-11-22T17:14:42.458Z,28.13
2017-11-22T17:17:09.580Z,27.97
2017-11-22T17:19:35.885Z,31.93
2017-11-22T17:22:02.196Z,30.77
2017-11-22T17:24:28.569Z,31.00
2017-11-22T17:26:55.005Z,28.07
2017-11-22T17:29:21.331Z,27.87
2017-11-22T17:31:47.706Z,27.83
2017-11-22T17:34:14.074Z,26.10
2017-11-22T17:36:40.386Z,26.40
2017-11-22T17:39:06.797Z,27.97
2017-11-22T17:41:33.944Z,27.63
2017-11-22T17:44:01.127Z,27.03
2017-11-22T17:46:27.509Z,28.97
2017-11-22T17:48:54.637Z,26.20
2017-11-22T17:51:20.979Z,27.23
2017-11-22T17:53:47.319Z,28.23
2017-11-22T17:56:14.372Z,25.83
2017-11-22T17:58:41.529Z,26.53
2017-11-22T18:01:08.631Z,26.37
2017-11-22T18:03:34.954Z,26.27
2017-11-22T18:06:01.326Z,25.97
2017-11-22T18:08:28.427Z,26.60
2017-11-22T18:10:54.785Z,25.73
2017-11-22T18:13:21.406Z,26.17
2017-11-22T18:15:47.812Z,26.63
2017-11-22T18:18:14.192Z,25.90
2017-11-22T18:20:40.525Z,26.20
2017-11-22T18:23:07.689Z,25.83
2017-11-22T18:25:34.816Z,24.67
2017-11-22T18:28:01.407Z,25.37
2017-11-22T18:30:27.958Z,25.27
2017-11-22T18:32:54.634Z,26.27
2017-11-22T18:35:21.055Z,24.57
2017-11-22T18:37:47.566Z,26.67
2017-11-22T18:40:14.023Z,24.07
2017-11-22T18:42:41.118Z,23.30
2017-11-22T18:45:08.183Z,23.87
2017-11-22T18:47:34.631Z,24.33
2017-11-22T18:50:01.034Z,24.27
2017-11-22T18:52:27.460Z,27.50
2017-11-22T18:54:53.901Z,27.40
2017-11-22T18:57:20.255Z,23.23
2017-11-22T18:59:46.639Z,23.57
2017-11-22T19:02:12.949Z,23.70
2017-11-22T19:04:39.285Z,24.40
2017-11-22T19:07:06.441Z,25.03
2017-11-22T19:09:33.496Z,22.90
2017-11-22T19:12:00.602Z,22.63
2017-11-22T19:14:27.057Z,24.23
2017-11-22T19:16:53.413Z,23.60
2017-11-22T19:19:19.818Z,24.70
2017-11-22T19:21:46.216Z,23.53
2017-11-22T19:24:12.555Z,24.23
2017-11-22T19:26:38.997Z,23.37
2017-11-22T19:29:05.346Z,23.50
2017-11-22T19:31:31.694Z,22.07
2017-11-22T19:33:58.109Z,25.67
2017-11-22T19:36:24.603Z,24.17
2017-11-22T19:38:50.958Z,25.43
2017-11-22T19:41:17.358Z,24.80
2017-11-22T19:43:43.719Z,26.43
2017-11-22T19:46:11.709Z,24.93
2017-11-22T19:48:38.004Z,23.73
2017-11-22T19:51:04.397Z,23.60
2017-11-22T19:53:31.515Z,22.33
2017-11-22T19:55:57.901Z,25.37
2017-11-22T19:58:24.270Z,24.03
2017-11-22T20:00:50.614Z,21.17
2017-11-22T20:03:17.129Z,23.70
2017-11-22T20:05:44.335Z,21.30
2017-11-22T20:08:23.915Z,23.07
2017-11-22T20:10:50.294Z,23.33
2017-11-22T20:13:17.793Z,22.73
2017-11-22T20:15:44.173Z,22.50
2017-11-22T20:18:11.389Z,21.53
2017-11-22T20:20:37.752Z,23.30
2017-11-22T20:23:04.254Z,21.20
2017-11-22T20:25:30.663Z,23.10
2017-11-22T20:27:57.260Z,22.33
2017-11-22T20:30:23.778Z,23.60
2017-11-22T20:32:50.123Z,21.03
2017-11-22T20:35:16.541Z,21.67
2017-11-22T20:37:42.970Z,21.43
2017-11-22T20:40:09.319Z,21.93
2017-11-22T20:42:35.734Z,21.57
2017-11-22T20:45:03.296Z,21.90
2017-11-22T20:47:29.677Z,22.27
2017-11-22T20:49:56.037Z,22.30
2017-11-22T20:52:22.588Z,21.40
2017-11-22T20:54:49.050Z,20.40
2017-11-22T20:57:16.353Z,22.57
2017-11-22T20:59:42.763Z,21.70
2017-11-22T21:02:09.221Z,21.83
2017-11-22T21:04:35.615Z,21.00
2017-11-22T21:07:02.034Z,21.73
2017-11-22T21:09:30.077Z,20.73
2017-11-22T21:11:56.449Z,22.03
2017-11-22T21:14:23.598Z,21.97
2017-11-22T21:16:50.667Z,21.60
2017-11-22T21:19:17.026Z,21.63
2017-11-22T21:21:43.405Z,22.20
2017-11-22T21:24:10.623Z,20.83
2017-11-22T21:26:37.015Z,21.17
2017-11-22T21:29:03.344Z,23.07
2017-11-22T21:31:29.665Z,21.33
2017-11-22T21:33:56.072Z,22.40
2017-11-22T21:36:23.166Z,21.70
2017-11-22T21:38:49.507Z,21.10
2017-11-22T21:41:15.852Z,22.67
2017-11-22T21:43:42.144Z,22.73
2017-11-22T21:46:08.589Z,21.27
2017-11-22T21:48:34.917Z,23.87
2017-11-22T21:51:01.503Z,21.30
2017-11-22T21:53:28.274Z,21.00
2017-11-22T21:55:54.672Z,20.83
2017-11-22T21:58:21.016Z,21.20
2017-11-22T22:00:48.112Z,22.27
2017-11-22T22:03:14.481Z,22.43
2017-11-22T22:05:41.573Z,20.77
2017-11-22T22:08:07.859Z,20.47
2017-11-22T22:10:34.194Z,20.63
2017-11-22T22:13:00.504Z,20.43
2017-11-22T22:15:26.867Z,21.07
2017-11-22T22:17:53.955Z,22.20
2017-11-22T22:20:20.285Z,20.87
2017-11-22T22:22:46.621Z,21.40
2017-11-22T22:25:12.952Z,21.33
2017-11-22T22:27:39.295Z,20.43
2017-11-22T22:30:05.591Z,21.50
2017-11-22T22:32:31.923Z,21.10
2017-11-22T22:34:58.294Z,20.73
2017-11-22T22:37:24.591Z,22.57
2017-11-22T22:39:50.918Z,20.90
2017-11-22T22:42:17.220Z,23.30
2017-11-22T22:44:43.570Z,18.93
2017-11-22T22:47:09.879Z,20.87
2017-11-22T22:49:37.276Z,20.23
2017-11-22T22:52:03.624Z,18.50
2017-11-22T22:54:29.907Z,19.47
2017-11-22T22:56:56.237Z,18.80
2017-11-22T22:59:22.538Z,18.50
2017-11-22T23:01:48.895Z,19.60
2017-11-22T23:04:15.233Z,17.80
2017-11-22T23:06:41.579Z,19.10
2017-11-22T23:09:07.884Z,17.60
2017-11-22T23:11:34.188Z,20.10
2017-11-22T23:14:00.508Z,18.40
2017-11-22T23:16:26.796Z,19.17
2017-11-22T23:18:53.142Z,17.90
2017-11-22T23:21:19.426Z,18.80
2017-11-22T23:23:45.834Z,17.47
2017-11-22T23:26:12.114Z,18.17
2017-11-22T23:28:38.431Z,17.70
2017-11-22T23:31:04.768Z,17.40
2017-11-22T23:33:31.090Z,16.17
2017-11-22T23:35:57.409Z,17.03
2017-11-22T23:38:24.469Z,16.53
2017-11-22T23:40:50.781Z,16.37
2017-11-22T23:43:17.116Z,17.97
2017-11-22T23:45:44.146Z,15.90
2017-11-22T23:48:11.225Z,15.37
2017-11-22T23:50:37.527Z,15.40
2017-11-22T23:53:03.824Z,15.77
2017-11-22T23:55:37.103Z,15.00
2017-11-22T23:58:03.415Z,15.30
